createdAt,value
2022-07-28T00:02:06.392Z,17.00
2022-07-28T00:04:33.828Z,17.00
2022-07-28T00:07:01.013Z,17.00
2022-07-28T00:09:28.531Z,17.00
2022-07-28T00:11:55.272Z,16.90
2022-07-28T00:14:22.317Z,16.90
2022-07-28T00:16:49.374Z,16.80
2022-07-28T00:19:16.580Z,16.80
2022-07-28T00:21:43.336Z,16.80
2022-07-28T00:24:10.283Z,16.80
2022-07-28T00:26:37.832Z,16.80
2022-07-28T00:29:05.741Z,16.70
2022-07-28T00:31:32.610Z,16.70
2022-07-28T00:33:59.704Z,16.60
2022-07-28T00:36:26.381Z,16.60
2022-07-28T00:38:53.424Z,16.60
2022-07-28T00:41:20.576Z,16.60
2022-07-28T00:43:49.878Z,16.50
2022-07-28T00:46:19.691Z,16.50
2022-07-28T00:48:50.607Z,16.50
2022-07-28T00:51:19.916Z,16.60
2022-07-28T00:53:47.085Z,16.60
2022-07-28T00:56:14.542Z,16.50
2022-07-28T00:58:41.556Z,16.50
2022-07-28T01:01:10.651Z,16.40
2022-07-28T01:03:42.741Z,16.30
2022-07-28T01:06:12.536Z,16.40
2022-07-28T01:09:13.479Z,16.40
2022-07-28T01:12:03.188Z,16.30
2022-07-28T01:14:53.784Z,16.30
2022-07-28T01:17:26.832Z,16.30
2022-07-28T01:20:20.402Z,16.30
2022-07-28T01:23:02.011Z,16.20
2022-07-28T01:25:34.846Z,16.20
2022-07-28T01:28:31.522Z,16.20
2022-07-28T01:31:02.378Z,16.20
2022-07-28T01:33:37.030Z,16.20
2022-07-28T01:36:10.627Z,16.20
2022-07-28T01:38:39.245Z,16.20
2022-07-28T01:41:09.861Z,16.10
2022-07-28T01:43:40.243Z,16.10
2022-07-28T01:46:08.379Z,16.10
2022-07-28T01:48:38.576Z,16.10
2022-07-28T01:51:07.445Z,16.10
2022-07-28T01:53:37.693Z,16.10
2022-07-28T01:56:06.242Z,16.10
2022-07-28T01:58:35.304Z,16.10
2022-07-28T02:01:03.795Z,16.10
2022-07-28T02:03:32.454Z,16.10
2022-07-28T02:06:02.560Z,16.00
2022-07-28T02:08:31.793Z,16.00
2022-07-28T02:11:34.803Z,16.00
2022-07-28T02:14:02.915Z,16.00
2022-07-28T02:16:31.626Z,16.00
2022-07-28T02:19:00.591Z,16.00
2022-07-28T02:21:29.722Z,16.00
2022-07-28T02:23:58.325Z,16.00
2022-07-28T02:26:30.895Z,16.00
2022-07-28T02:29:00.211Z,16.00
2022-07-28T02:31:31.901Z,16.00
2022-07-28T02:34:12.560Z,16.00
2022-07-28T02:36:42.641Z,16.00
2022-07-28T02:39:22.089Z,15.90
2022-07-28T02:41:51.133Z,16.00
2022-07-28T02:44:25.727Z,15.90
2022-07-28T02:46:54.976Z,15.90
2022-07-28T02:49:29.910Z,15.90
2022-07-28T02:51:59.742Z,15.90
2022-07-28T02:54:28.811Z,15.90
2022-07-28T02:56:58.423Z,15.80
2022-07-28T02:59:27.372Z,15.80
2022-07-28T03:01:55.600Z,15.80
2022-07-28T03:04:42.660Z,15.80
2022-07-28T03:07:10.889Z,15.70
2022-07-28T03:09:46.496Z,15.70
2022-07-28T03:12:13.996Z,15.70
2022-07-28T03:14:41.822Z,15.60
2022-07-28T03:17:08.976Z,15.60
2022-07-28T03:19:35.884Z,15.60
2022-07-28T03:22:02.536Z,15.60
2022-07-28T03:24:33.476Z,15.60
2022-07-28T03:27:17.945Z,15.50
2022-07-28T03:29:48.729Z,15.50
2022-07-28T03:32:18.729Z,15.50
2022-07-28T03:34:45.739Z,15.50
2022-07-28T03:37:16.109Z,15.50
2022-07-28T03:39:47.615Z,15.50
2022-07-28T03:42:20.436Z,15.50
2022-07-28T03:44:47.981Z,15.40
2022-07-28T03:47:15.710Z,15.40
2022-07-28T03:49:46.135Z,15.40
2022-07-28T03:52:13.215Z,15.40
2022-07-28T03:54:39.943Z,15.40
2022-07-28T03:57:06.683Z,15.40
2022-07-28T03:59:33.448Z,15.30
2022-07-28T04:02:00.288Z,15.30
2022-07-28T04:04:27.131Z,15.30
2022-07-28T04:06:53.893Z,15.30
2022-07-28T04:09:20.632Z,15.30
2022-07-28T04:11:47.291Z,15.30
2022-07-28T04:14:16.858Z,15.30
2022-07-28T04:16:44.644Z,15.30
2022-07-28T04:19:11.521Z,15.30
2022-07-28T04:21:38.188Z,15.30
2022-07-28T04:24:05.523Z,15.30
2022-07-28T04:26:32.289Z,15.30
2022-07-28T04:29:03.446Z,15.30
2022-07-28T04:31:30.626Z,15.30
2022-07-28T04:33:57.477Z,15.40
2022-07-28T04:36:24.167Z,15.50
2022-07-28T04:38:50.953Z,15.50
2022-07-28T04:41:17.694Z,15.50
2022-07-28T04:43:45.361Z,15.50
2022-07-28T04:46:15.178Z,15.60
2022-07-28T04:48:42.484Z,15.60
2022-07-28T04:51:09.826Z,15.60
2022-07-28T04:53:36.639Z,15.70
2022-07-28T04:56:03.508Z,15.70
2022-07-28T04:58:30.990Z,15.70
2022-07-28T05:00:58.127Z,15.70
2022-07-28T05:03:24.896Z,15.80
2022-07-28T05:05:54.213Z,15.80
2022-07-28T05:08:21.981Z,15.90
2022-07-28T05:10:52.597Z,15.90
2022-07-28T05:13:19.411Z,16.00
2022-07-28T05:15:46.206Z,16.00
2022-07-28T05:18:13.002Z,16.10
2022-07-28T05:20:39.631Z,16.20
2022-07-28T05:23:06.398Z,16.30
2022-07-28T05:25:33.104Z,16.30
2022-07-28T05:27:59.855Z,16.40
2022-07-28T05:30:26.636Z,16.50
2022-07-28T05:32:54.055Z,16.60
2022-07-28T05:35:20.906Z,16.60
2022-07-28T05:37:47.592Z,16.70
2022-07-28T05:40:15.455Z,16.90
2022-07-28T05:42:47.468Z,16.90
2022-07-28T05:45:17.892Z,17.00
2022-07-28T05:47:49.967Z,17.10
2022-07-28T05:50:18.492Z,17.20
2022-07-28T05:52:46.264Z,17.30
2022-07-28T05:55:13.757Z,17.40
2022-07-28T05:57:41.188Z,17.30
2022-07-28T06:00:10.957Z,17.30
2022-07-28T06:02:42.326Z,17.30
2022-07-28T06:05:09.691Z,17.30
2022-07-28T06:07:42.717Z,17.50
2022-07-28T06:10:12.859Z,17.50
2022-07-28T06:12:44.838Z,17.40
2022-07-28T06:15:21.427Z,17.40
2022-07-28T06:17:52.317Z,17.40
2022-07-28T06:20:21.040Z,17.50
2022-07-28T06:22:50.308Z,17.70
2022-07-28T06:25:22.026Z,17.90
2022-07-28T06:27:50.654Z,18.10
2022-07-28T06:30:18.091Z,18.20
2022-07-28T06:32:46.225Z,18.30
2022-07-28T06:35:16.335Z,18.40
2022-07-28T06:37:47.253Z,18.50
2022-07-28T06:40:15.641Z,18.60
2022-07-28T06:42:44.306Z,18.60
2022-07-28T06:45:19.809Z,18.60
2022-07-28T06:47:54.697Z,18.70
2022-07-28T06:50:26.017Z,19.00
2022-07-28T06:52:59.111Z,19.20
2022-07-28T06:55:34.430Z,19.50
2022-07-28T06:58:02.022Z,19.60
2022-07-28T07:00:31.483Z,19.60
2022-07-28T07:03:01.775Z,19.80
2022-07-28T07:05:31.860Z,19.90
2022-07-28T07:07:58.959Z,20.10
2022-07-28T07:10:28.733Z,20.30
2022-07-28T07:12:58.408Z,20.40
2022-07-28T07:15:25.252Z,20.40
2022-07-28T07:17:54.138Z,20.30
2022-07-28T07:20:20.978Z,20.50
2022-07-28T07:22:48.326Z,20.60
2022-07-28T07:25:17.649Z,20.70
2022-07-28T07:27:45.149Z,20.90
2022-07-28T07:30:13.362Z,20.90
2022-07-28T07:32:41.740Z,21.00
2022-07-28T07:35:09.217Z,21.00
2022-07-28T07:37:35.970Z,21.10
2022-07-28T07:40:07.815Z,21.30
2022-07-28T07:42:37.430Z,21.50
2022-07-28T07:45:04.886Z,21.70
2022-07-28T07:47:31.651Z,21.90
2022-07-28T07:49:58.436Z,22.10
2022-07-28T07:52:25.178Z,22.30
2022-07-28T07:54:51.938Z,22.20
2022-07-28T07:57:18.653Z,22.20
2022-07-28T07:59:45.555Z,22.20
2022-07-28T08:02:12.332Z,22.40
2022-07-28T08:04:39.316Z,22.50
2022-07-28T08:07:07.229Z,22.60
2022-07-28T08:09:34.779Z,22.90
2022-07-28T08:12:01.998Z,22.90
2022-07-28T08:14:28.891Z,23.00
2022-07-28T08:16:56.672Z,23.20
2022-07-28T08:19:24.100Z,23.20
2022-07-28T08:21:51.323Z,23.20
2022-07-28T08:24:32.983Z,23.50
2022-07-28T08:27:01.644Z,23.90
2022-07-28T08:29:28.347Z,24.30
2022-07-28T08:31:55.121Z,24.90
2022-07-28T08:34:30.949Z,25.20
2022-07-28T08:37:00.803Z,25.30
2022-07-28T08:39:27.623Z,25.40
2022-07-28T08:42:18.128Z,25.50
2022-07-28T08:44:58.830Z,25.40
2022-07-28T08:47:40.593Z,25.30
2022-07-28T08:50:13.923Z,25.80
2022-07-28T08:52:41.212Z,26.20
2022-07-28T08:55:08.718Z,26.20
2022-07-28T08:57:37.636Z,26.60
2022-07-28T09:00:05.486Z,26.80
2022-07-28T09:02:33.501Z,26.50
2022-07-28T09:05:00.984Z,26.90
2022-07-28T09:07:28.059Z,27.40
2022-07-28T09:10:02.276Z,27.60
2022-07-28T09:12:29.716Z,27.70
2022-07-28T09:14:56.473Z,28.00
2022-07-28T09:17:23.290Z,27.50
2022-07-28T09:19:50.032Z,27.90
2022-07-28T09:22:16.769Z,28.20
2022-07-28T09:24:46.683Z,28.70
2022-07-28T09:27:15.118Z,29.10
2022-07-28T09:29:46.142Z,29.50
2022-07-28T09:32:18.990Z,30.00
2022-07-28T09:34:48.603Z,30.20
2022-07-28T09:37:27.928Z,30.40
2022-07-28T09:39:59.247Z,30.40
2022-07-28T09:42:26.489Z,30.90
2022-07-28T09:45:24.882Z,31.40
2022-07-28T09:48:14.828Z,31.50
2022-07-28T09:50:42.664Z,31.90
2022-07-28T09:53:21.711Z,32.30
2022-07-28T09:55:57.796Z,32.40
2022-07-28T09:58:26.702Z,32.30
2022-07-28T10:01:07.678Z,31.80
2022-07-28T10:03:40.257Z,31.80
2022-07-28T10:06:09.112Z,32.40
2022-07-28T10:08:48.993Z,32.30
2022-07-28T10:11:20.260Z,33.00
2022-07-28T10:13:56.778Z,33.30
2022-07-28T10:16:29.666Z,33.00
2022-07-28T10:18:59.422Z,32.60
2022-07-28T10:21:27.520Z,31.90
2022-07-28T10:23:59.281Z,31.50
2022-07-28T10:26:32.693Z,31.00
2022-07-28T10:29:04.290Z,31.00
2022-07-28T10:31:52.519Z,31.70
2022-07-28T10:34:34.772Z,30.80
2022-07-28T10:37:06.754Z,30.50
2022-07-28T10:39:41.362Z,30.80
2022-07-28T10:42:12.664Z,31.40
2022-07-28T10:44:41.617Z,32.50
2022-07-28T10:47:18.639Z,33.50
2022-07-28T10:49:49.009Z,34.20
2022-07-28T10:52:45.919Z,34.40
2022-07-28T10:55:32.415Z,33.40
2022-07-28T10:58:25.089Z,33.80
2022-07-28T11:00:56.695Z,34.70
2022-07-28T11:03:44.346Z,35.80
2022-07-28T11:06:40.177Z,37.10
2022-07-28T11:09:27.253Z,37.50
2022-07-28T11:11:55.848Z,37.30
2022-07-28T11:14:25.978Z,37.50
2022-07-28T11:17:10.572Z,36.90
2022-07-28T11:19:55.744Z,36.40
2022-07-28T11:22:33.652Z,35.90
2022-07-28T11:25:19.715Z,35.20
2022-07-28T11:27:49.916Z,35.90
2022-07-28T11:30:22.746Z,36.20
2022-07-28T11:32:53.456Z,34.70
2022-07-28T11:35:49.451Z,34.40
2022-07-28T11:38:16.357Z,34.30
2022-07-28T11:40:48.347Z,34.00
2022-07-28T11:43:22.474Z,33.50
2022-07-28T11:46:12.021Z,33.00
2022-07-28T11:48:40.951Z,32.40
2022-07-28T11:51:07.753Z,32.00
2022-07-28T11:53:45.945Z,31.50
2022-07-28T11:56:27.034Z,31.00
2022-07-28T11:58:59.094Z,31.00
2022-07-28T12:01:25.896Z,31.00
2022-07-28T12:03:56.770Z,31.20
2022-07-28T12:06:35.353Z,31.50
2022-07-28T12:09:08.051Z,31.80
2022-07-28T12:11:43.815Z,32.10
2022-07-28T12:14:15.646Z,32.30
2022-07-28T12:16:44.979Z,32.20
2022-07-28T12:19:15.829Z,32.20
2022-07-28T12:21:48.280Z,32.40
2022-07-28T12:24:28.003Z,32.40
2022-07-28T12:26:55.640Z,32.20
2022-07-28T12:29:23.923Z,31.80
2022-07-28T12:31:56.076Z,31.70
2022-07-28T12:34:24.278Z,31.80
2022-07-28T12:37:01.924Z,31.60
2022-07-28T12:39:30.855Z,31.60
2022-07-28T12:42:08.891Z,31.70
2022-07-28T12:44:47.558Z,31.60
2022-07-28T12:47:15.901Z,31.80
2022-07-28T12:49:44.221Z,31.80
2022-07-28T12:52:18.869Z,32.00
2022-07-28T12:54:54.467Z,32.10
2022-07-28T12:57:50.958Z,31.70
2022-07-28T13:00:49.111Z,31.60
2022-07-28T13:03:24.235Z,32.40
2022-07-28T13:06:03.589Z,32.80
2022-07-28T13:08:45.103Z,33.30
2022-07-28T13:11:41.934Z,33.50
2022-07-28T13:14:01.347Z,33.90
2022-07-28T13:16:29.364Z,34.60
2022-07-28T13:19:03.986Z,35.10
2022-07-28T13:21:59.658Z,34.90
2022-07-28T13:24:29.858Z,34.60
2022-07-28T13:26:58.212Z,34.50
2022-07-28T13:29:25.208Z,34.60
2022-07-28T13:31:54.618Z,35.00
2022-07-28T13:34:22.400Z,35.20
2022-07-28T13:36:49.299Z,35.20
2022-07-28T13:39:16.105Z,35.50
2022-07-28T13:41:57.606Z,36.00
2022-07-28T13:44:30.052Z,36.20
2022-07-28T13:46:59.341Z,36.00
2022-07-28T13:49:31.690Z,36.10
2022-07-28T13:51:59.609Z,36.40
2022-07-28T13:54:27.970Z,36.50
2022-07-28T13:57:14.370Z,36.70
2022-07-28T13:59:42.284Z,36.80
2022-07-28T14:02:15.777Z,36.70
2022-07-28T14:04:46.097Z,36.60
2022-07-28T14:07:20.970Z,36.50
2022-07-28T14:09:50.321Z,35.80
2022-07-28T14:12:17.817Z,34.60
2022-07-28T14:14:48.545Z,34.10
2022-07-28T14:20:04.257Z,33.00
2022-07-28T14:22:31.102Z,32.70
2022-07-28T14:24:57.842Z,32.30
2022-07-28T14:27:28.955Z,31.70
2022-07-28T14:29:56.065Z,31.50
2022-07-28T14:32:23.232Z,31.10
2022-07-28T14:34:50.591Z,31.00
2022-07-28T14:37:17.717Z,31.00
2022-07-28T14:39:44.658Z,30.80
2022-07-28T14:42:11.900Z,30.70
2022-07-28T14:44:38.766Z,30.60
2022-07-28T14:47:07.325Z,30.60
2022-07-28T14:49:35.382Z,30.70
2022-07-28T14:52:03.067Z,30.60
2022-07-28T14:54:30.024Z,30.50
2022-07-28T14:56:57.163Z,30.50
2022-07-28T14:59:24.436Z,30.50
2022-07-28T15:01:51.770Z,30.40
2022-07-28T15:04:18.987Z,30.30
2022-07-28T15:06:47.250Z,30.10
2022-07-28T15:09:14.673Z,30.10
2022-07-28T15:11:42.008Z,30.00
2022-07-28T15:14:08.953Z,30.00
2022-07-28T15:16:36.107Z,30.00
2022-07-28T15:19:03.146Z,30.00
2022-07-28T15:21:34.479Z,30.20
2022-07-28T15:24:03.223Z,30.20
2022-07-28T15:26:30.160Z,30.10
2022-07-28T15:28:57.002Z,30.00
2022-07-28T15:31:25.567Z,29.70
2022-07-28T15:33:57.692Z,29.70
2022-07-28T15:36:25.759Z,29.70
2022-07-28T15:38:53.597Z,29.60
2022-07-28T15:41:22.412Z,29.60
2022-07-28T15:43:49.301Z,29.40
2022-07-28T15:46:16.226Z,29.40
2022-07-28T15:48:44.049Z,29.40
2022-07-28T15:51:11.650Z,29.40
2022-07-28T15:53:38.884Z,29.40
2022-07-28T15:56:05.941Z,29.30
2022-07-28T15:58:32.999Z,29.30
2022-07-28T16:01:02.239Z,29.20
2022-07-28T16:03:30.079Z,29.20
2022-07-28T16:05:58.519Z,29.20
2022-07-28T16:08:25.850Z,29.00
2022-07-28T16:10:54.479Z,28.90
2022-07-28T16:13:32.121Z,28.90
2022-07-28T16:16:08.748Z,28.80
2022-07-28T16:18:36.829Z,28.70
2022-07-28T16:21:04.789Z,28.60
2022-07-28T16:23:31.770Z,28.60
2022-07-28T16:25:59.216Z,28.60
2022-07-28T16:28:26.575Z,28.60
2022-07-28T16:30:53.775Z,28.70
2022-07-28T16:33:20.642Z,28.70
2022-07-28T16:35:47.514Z,28.70
2022-07-28T16:38:14.354Z,28.70
2022-07-28T16:40:41.113Z,28.70
2022-07-28T16:43:07.951Z,28.80
2022-07-28T16:45:35.513Z,28.90
2022-07-28T16:48:03.100Z,29.20
2022-07-28T16:50:32.069Z,29.60
2022-07-28T16:52:59.824Z,29.80
2022-07-28T16:55:27.298Z,29.90
2022-07-28T16:57:55.359Z,29.60
2022-07-28T17:00:25.527Z,29.60
2022-07-28T17:02:59.096Z,29.50
2022-07-28T17:05:29.461Z,29.20
2022-07-28T17:08:01.165Z,29.20
2022-07-28T17:10:33.588Z,28.90
2022-07-28T17:13:17.168Z,28.70
2022-07-28T17:16:01.543Z,28.60
2022-07-28T17:18:42.520Z,28.40
2022-07-28T17:21:53.123Z,28.20
2022-07-28T17:24:28.433Z,28.20
2022-07-28T17:29:43.016Z,28.10
2022-07-28T17:32:10.223Z,28.10
2022-07-28T17:34:37.581Z,28.00
2022-07-28T17:37:04.876Z,28.00
2022-07-28T17:39:31.880Z,27.90
2022-07-28T17:41:58.896Z,27.90
2022-07-28T17:44:25.730Z,27.90
2022-07-28T17:46:54.872Z,27.90
2022-07-28T17:49:21.987Z,27.90
2022-07-28T17:51:48.941Z,27.90
2022-07-28T17:54:17.273Z,27.80
2022-07-28T17:56:44.541Z,27.80
2022-07-28T17:59:12.827Z,27.80
2022-07-28T18:01:45.021Z,27.80
2022-07-28T18:04:12.441Z,27.80
2022-07-28T18:06:47.897Z,27.70
2022-07-28T18:09:15.574Z,27.60
2022-07-28T18:11:57.798Z,27.50
2022-07-28T18:14:29.740Z,27.40
2022-07-28T18:16:58.404Z,27.30
2022-07-28T18:19:29.466Z,27.30
2022-07-28T18:21:56.897Z,27.20
2022-07-28T18:24:23.906Z,27.20
2022-07-28T18:26:54.728Z,27.00
2022-07-28T18:29:24.764Z,27.00
2022-07-28T18:31:52.527Z,27.00
2022-07-28T18:34:23.539Z,26.90
2022-07-28T18:36:53.457Z,26.90
2022-07-28T18:39:20.766Z,26.80
2022-07-28T18:41:48.136Z,26.80
2022-07-28T18:44:19.498Z,26.60
2022-07-28T18:46:47.831Z,26.50
2022-07-28T18:49:15.797Z,26.50
2022-07-28T18:51:44.983Z,26.40
2022-07-28T18:54:14.101Z,26.30
2022-07-28T18:56:41.308Z,26.20
2022-07-28T18:59:08.491Z,26.20
2022-07-28T19:01:35.627Z,26.10
2022-07-28T19:04:02.647Z,26.00
2022-07-28T19:06:29.618Z,25.90
2022-07-28T19:08:56.804Z,25.80
2022-07-28T19:11:23.791Z,25.70
2022-07-28T19:13:51.321Z,25.70
2022-07-28T19:16:19.532Z,25.60
2022-07-28T19:18:54.429Z,25.50
2022-07-28T19:21:21.728Z,25.40
2022-07-28T19:23:49.307Z,25.30
2022-07-28T19:26:16.577Z,25.20
2022-07-28T19:28:44.159Z,25.10
2022-07-28T19:31:11.255Z,25.00
2022-07-28T19:33:43.765Z,24.90
2022-07-28T19:36:13.820Z,24.90
2022-07-28T19:38:41.237Z,24.80
2022-07-28T19:41:09.018Z,24.70
2022-07-28T19:43:36.038Z,24.70
2022-07-28T19:46:03.038Z,24.60
2022-07-28T19:48:30.111Z,24.60
2022-07-28T19:50:57.377Z,24.50
2022-07-28T19:53:25.314Z,24.50
2022-07-28T19:55:59.101Z,24.40
2022-07-28T19:58:26.289Z,24.40
2022-07-28T20:00:57.169Z,24.30
2022-07-28T20:04:03.471Z,24.30
2022-07-28T20:06:11.683Z,24.20
2022-07-28T20:08:38.915Z,24.20
2022-07-28T20:11:06.701Z,24.20
2022-07-28T20:13:33.636Z,24.20
2022-07-28T20:16:00.529Z,24.10
2022-07-28T20:18:27.470Z,24.10
2022-07-28T20:20:54.345Z,24.10
2022-07-28T20:23:21.251Z,24.00
2022-07-28T20:25:48.073Z,24.10
2022-07-28T20:28:14.865Z,24.00
2022-07-28T20:30:41.927Z,24.00
2022-07-28T20:33:08.855Z,23.90
2022-07-28T20:35:35.651Z,23.90
2022-07-28T20:38:03.346Z,24.00
2022-07-28T20:40:30.149Z,24.00
2022-07-28T20:42:57.014Z,23.90
2022-07-28T20:45:23.995Z,23.90
2022-07-28T20:47:51.204Z,23.90
2022-07-28T20:50:20.477Z,23.80
2022-07-28T20:52:48.597Z,23.80
2022-07-28T20:55:15.459Z,23.70
2022-07-28T20:57:42.344Z,23.70
2022-07-28T21:00:20.469Z,23.60
2022-07-28T21:02:47.386Z,23.60
2022-07-28T21:05:26.812Z,23.60
2022-07-28T21:08:05.929Z,23.50
2022-07-28T21:10:33.927Z,23.40
2022-07-28T21:13:01.438Z,23.40
2022-07-28T21:15:28.735Z,23.40
2022-07-28T21:17:57.194Z,23.30
2022-07-28T21:20:25.405Z,23.30
2022-07-28T21:22:52.812Z,23.30
2022-07-28T21:25:20.317Z,23.20
2022-07-28T21:28:06.126Z,23.20
2022-07-28T21:30:33.054Z,23.10
2022-07-28T21:33:00.395Z,23.10
2022-07-28T21:35:27.463Z,23.10
2022-07-28T21:37:54.343Z,23.00
2022-07-28T21:40:21.398Z,23.00
2022-07-28T21:42:48.380Z,22.90
2022-07-28T21:45:15.216Z,22.90
2022-07-28T21:47:42.083Z,22.80
2022-07-28T21:50:09.262Z,22.80
2022-07-28T21:52:37.469Z,22.80
2022-07-28T21:55:06.169Z,22.70
2022-07-28T21:57:34.468Z,22.70
2022-07-28T22:00:02.123Z,22.60
2022-07-28T22:02:29.120Z,22.60
2022-07-28T22:04:55.955Z,22.60
2022-07-28T22:07:22.821Z,22.60
2022-07-28T22:09:49.666Z,22.60
2022-07-28T22:12:16.712Z,22.70
2022-07-28T22:14:43.588Z,22.70
2022-07-28T22:17:10.378Z,22.70
2022-07-28T22:19:37.348Z,22.70
2022-07-28T22:22:04.088Z,22.70
2022-07-28T22:24:30.798Z,22.70
2022-07-28T22:26:57.647Z,22.60
2022-07-28T22:29:24.870Z,22.70
2022-07-28T22:31:54.822Z,22.60
2022-07-28T22:34:25.979Z,22.60
2022-07-28T22:36:52.721Z,22.60
2022-07-28T22:39:19.489Z,22.60
2022-07-28T22:41:47.054Z,22.50
2022-07-28T22:44:14.157Z,22.50
2022-07-28T22:46:41.220Z,22.50
2022-07-28T22:49:08.068Z,22.50
2022-07-28T22:51:34.903Z,22.50
2022-07-28T22:54:02.311Z,22.50
2022-07-28T22:56:37.653Z,22.40
2022-07-28T22:59:05.161Z,22.40
2022-07-28T23:01:32.078Z,22.40
2022-07-28T23:03:58.965Z,22.40
2022-07-28T23:06:26.617Z,22.30
2022-07-28T23:08:53.374Z,22.30
2022-07-28T23:11:20.145Z,22.30
2022-07-28T23:13:47.227Z,22.20
2022-07-28T23:16:16.727Z,22.20
2022-07-28T23:18:44.508Z,22.10
2022-07-28T23:21:11.900Z,22.10
2022-07-28T23:23:38.965Z,22.10
2022-07-28T23:26:05.752Z,22.10
2022-07-28T23:28:32.786Z,22.10
2022-07-28T23:30:59.544Z,22.10
2022-07-28T23:33:56.130Z,22.10
2022-07-28T23:36:14.652Z,22.10
2022-07-28T23:38:43.533Z,22.10
2022-07-28T23:41:12.514Z,22.10
2022-07-28T23:43:39.933Z,22.20
2022-07-28T23:46:07.328Z,22.20
2022-07-28T23:48:34.401Z,22.20
2022-07-28T23:51:01.533Z,22.20
2022-07-28T23:53:28.367Z,22.20
2022-07-28T23:55:55.141Z,22.10
2022-07-28T23:58:21.972Z,22.10
